sensor_id;sensor_type;location;lat;lon;timestamp;pressure;altitude;pressure_sealevel;temperature;humidity
40872;BME280;26591;43.264;26.940;2023-05-23T00:01:41;98624.16;;;18.27;63.44
40872;BME280;26591;43.264;26.940;2023-05-23T00:04:09;98624.84;;;18.04;62.15
40872;BME280;26591;43.264;26.940;2023-05-23T00:06:44;98622.78;;;18.06;62.89
40872;BME280;26591;43.264;26.940;2023-05-23T00:09:15;98627.22;;;18.12;63.51
40872;BME280;26591;43.264;26.940;2023-05-23T00:11:41;98631.31;;;18.15;62.23
40872;BME280;26591;43.264;26.940;2023-05-23T00:14:11;98630.25;;;18.16;62.43
40872;BME280;26591;43.264;26.940;2023-05-23T00:16:38;98631.25;;;18.03;62.90
40872;BME280;26591;43.264;26.940;2023-05-23T00:19:05;98629.28;;;18.10;63.20
40872;BME280;26591;43.264;26.940;2023-05-23T00:21:32;98632.94;;;18.16;63.11
40872;BME280;26591;43.264;26.940;2023-05-23T00:23:58;98633.38;;;17.94;62.79
40872;BME280;26591;43.264;26.940;2023-05-23T00:26:23;98634.88;;;17.90;63.00
40872;BME280;26591;43.264;26.940;2023-05-23T00:28:49;98634.97;;;18.02;62.79
40872;BME280;26591;43.264;26.940;2023-05-23T00:31:15;98636.69;;;18.15;62.95
40872;BME280;26591;43.264;26.940;2023-05-23T00:33:40;98640.44;;;18.26;62.51
40872;BME280;26591;43.264;26.940;2023-05-23T00:36:06;98632.31;;;18.33;61.89
40872;BME280;26591;43.264;26.940;2023-05-23T00:38:31;98630.66;;;18.32;63.29
40872;BME280;26591;43.264;26.940;2023-05-23T00:40:57;98624.16;;;18.27;64.22
40872;BME280;26591;43.264;26.940;2023-05-23T00:43:23;98627.78;;;18.33;65.85
40872;BME280;26591;43.264;26.940;2023-05-23T00:45:48;98627.38;;;18.18;65.94
40872;BME280;26591;43.264;26.940;2023-05-23T00:48:14;98628.91;;;18.25;66.01
40872;BME280;26591;43.264;26.940;2023-05-23T00:50:41;98625.28;;;18.20;66.08
40872;BME280;26591;43.264;26.940;2023-05-23T00:53:06;98626.19;;;18.13;66.23
40872;BME280;26591;43.264;26.940;2023-05-23T00:55:32;98631.69;;;18.19;65.78
40872;BME280;26591;43.264;26.940;2023-05-23T00:57:58;98627.44;;;18.11;65.29
40872;BME280;26591;43.264;26.940;2023-05-23T01:00:24;98619.16;;;18.01;65.66
40872;BME280;26591;43.264;26.940;2023-05-23T01:02:50;98619.72;;;18.03;66.23
40872;BME280;26591;43.264;26.940;2023-05-23T01:05:18;98626.41;;;18.12;65.90
40872;BME280;26591;43.264;26.940;2023-05-23T01:07:44;98630.78;;;17.88;66.07
40872;BME280;26591;43.264;26.940;2023-05-23T01:10:11;98625.00;;;17.91;65.64
40872;BME280;26591;43.264;26.940;2023-05-23T01:13:09;98623.50;;;17.76;64.54
40872;BME280;26591;43.264;26.940;2023-05-23T01:15:51;98618.88;;;17.83;63.95
40872;BME280;26591;43.264;26.940;2023-05-23T01:21:11;98619.22;;;17.31;64.53
40872;BME280;26591;43.264;26.940;2023-05-23T01:27:01;98613.06;;;17.31;65.87
40872;BME280;26591;43.264;26.940;2023-05-23T01:29:46;98615.56;;;17.26;65.80
40872;BME280;26591;43.264;26.940;2023-05-23T01:32:16;98622.22;;;17.42;65.49
40872;BME280;26591;43.264;26.940;2023-05-23T01:34:44;98612.94;;;17.44;65.38
40872;BME280;26591;43.264;26.940;2023-05-23T01:37:11;98616.00;;;17.22;65.53
40872;BME280;26591;43.264;26.940;2023-05-23T01:39:39;98608.88;;;17.16;66.69
40872;BME280;26591;43.264;26.940;2023-05-23T01:42:05;98616.84;;;16.98;66.53
40872;BME280;26591;43.264;26.940;2023-05-23T01:44:33;98611.94;;;16.88;66.81
40872;BME280;26591;43.264;26.940;2023-05-23T01:47:01;98616.91;;;16.84;67.14
40872;BME280;26591;43.264;26.940;2023-05-23T01:49:28;98622.25;;;16.84;67.27
40872;BME280;26591;43.264;26.940;2023-05-23T01:51:55;98615.00;;;16.91;66.77
40872;BME280;26591;43.264;26.940;2023-05-23T01:54:21;98612.31;;;16.91;67.54
40872;BME280;26591;43.264;26.940;2023-05-23T01:56:47;98611.34;;;16.86;67.63
40872;BME280;26591;43.264;26.940;2023-05-23T01:59:13;98611.75;;;16.89;67.41
40872;BME280;26591;43.264;26.940;2023-05-23T02:01:38;98617.53;;;16.86;67.63
40872;BME280;26591;43.264;26.940;2023-05-23T02:04:04;98614.72;;;17.06;67.50
40872;BME280;26591;43.264;26.940;2023-05-23T02:06:31;98613.97;;;16.92;67.73
40872;BME280;26591;43.264;26.940;2023-05-23T02:08:56;98611.09;;;16.94;67.66
40872;BME280;26591;43.264;26.940;2023-05-23T02:11:22;98611.84;;;16.76;67.78
40872;BME280;26591;43.264;26.940;2023-05-23T02:13:47;98617.72;;;16.85;68.09
40872;BME280;26591;43.264;26.940;2023-05-23T02:16:13;98621.06;;;16.80;67.95
40872;BME280;26591;43.264;26.940;2023-05-23T02:18:38;98623.47;;;16.88;68.07
40872;BME280;26591;43.264;26.940;2023-05-23T02:21:04;98618.63;;;16.78;68.85
40872;BME280;26591;43.264;26.940;2023-05-23T02:23:30;98615.38;;;16.70;69.46
40872;BME280;26591;43.264;26.940;2023-05-23T02:25:55;98619.78;;;16.89;68.32
40872;BME280;26591;43.264;26.940;2023-05-23T02:28:21;98620.44;;;16.78;68.45
40872;BME280;26591;43.264;26.940;2023-05-23T02:30:47;98625.75;;;16.59;69.49
40872;BME280;26591;43.264;26.940;2023-05-23T02:33:12;98623.41;;;16.70;69.31
40872;BME280;26591;43.264;26.940;2023-05-23T02:35:38;98626.97;;;16.57;69.35
40872;BME280;26591;43.264;26.940;2023-05-23T02:38:04;98623.66;;;16.61;69.17
40872;BME280;26591;43.264;26.940;2023-05-23T02:40:30;98628.03;;;16.81;68.52
40872;BME280;26591;43.264;26.940;2023-05-23T02:42:55;98638.00;;;16.67;69.17
40872;BME280;26591;43.264;26.940;2023-05-23T02:45:22;98623.81;;;16.67;69.42
40872;BME280;26591;43.264;26.940;2023-05-23T02:47:48;98628.81;;;16.56;69.99
40872;BME280;26591;43.264;26.940;2023-05-23T02:50:13;98627.66;;;16.77;69.99
40872;BME280;26591;43.264;26.940;2023-05-23T02:52:39;98632.31;;;16.57;69.84
40872;BME280;26591;43.264;26.940;2023-05-23T02:55:07;98635.00;;;16.50;71.02
40872;BME280;26591;43.264;26.940;2023-05-23T02:57:32;98630.47;;;16.57;70.20
40872;BME280;26591;43.264;26.940;2023-05-23T02:59:58;98637.78;;;16.69;69.94
40872;BME280;26591;43.264;26.940;2023-05-23T03:02:23;98634.00;;;16.83;70.11
40872;BME280;26591;43.264;26.940;2023-05-23T03:04:49;98632.09;;;16.90;69.52
40872;BME280;26591;43.264;26.940;2023-05-23T03:07:15;98633.19;;;17.08;69.02
40872;BME280;26591;43.264;26.940;2023-05-23T03:09:40;98626.19;;;16.82;69.60
40872;BME280;26591;43.264;26.940;2023-05-23T03:12:06;98638.56;;;16.76;69.98
40872;BME280;26591;43.264;26.940;2023-05-23T03:14:31;98635.84;;;16.83;69.35
40872;BME280;26591;43.264;26.940;2023-05-23T03:16:57;98639.56;;;16.82;70.16
40872;BME280;26591;43.264;26.940;2023-05-23T03:19:22;98637.88;;;16.87;69.85
40872;BME280;26591;43.264;26.940;2023-05-23T03:21:48;98647.03;;;16.73;70.01
40872;BME280;26591;43.264;26.940;2023-05-23T03:24:15;98643.25;;;16.81;69.34
40872;BME280;26591;43.264;26.940;2023-05-23T03:26:40;98635.19;;;16.87;68.79
40872;BME280;26591;43.264;26.940;2023-05-23T03:29:06;98642.47;;;16.73;69.65
40872;BME280;26591;43.264;26.940;2023-05-23T03:31:31;98641.44;;;16.74;69.60
40872;BME280;26591;43.264;26.940;2023-05-23T03:33:57;98651.66;;;16.84;68.98
40872;BME280;26591;43.264;26.940;2023-05-23T03:36:22;98650.94;;;17.02;68.44
40872;BME280;26591;43.264;26.940;2023-05-23T03:38:52;98642.72;;;17.04;68.56
40872;BME280;26591;43.264;26.940;2023-05-23T03:41:18;98646.19;;;17.04;68.23
40872;BME280;26591;43.264;26.940;2023-05-23T03:43:44;98650.69;;;17.11;68.36
40872;BME280;26591;43.264;26.940;2023-05-23T03:46:09;98648.63;;;17.06;67.91
40872;BME280;26591;43.264;26.940;2023-05-23T03:48:35;98650.88;;;17.09;68.51
40872;BME280;26591;43.264;26.940;2023-05-23T03:51:01;98659.13;;;17.07;68.43
40872;BME280;26591;43.264;26.940;2023-05-23T03:53:27;98651.91;;;17.08;68.55
40872;BME280;26591;43.264;26.940;2023-05-23T03:55:52;98660.66;;;17.22;68.29
40872;BME280;26591;43.264;26.940;2023-05-23T03:58:19;98664.84;;;17.11;68.08
40872;BME280;26591;43.264;26.940;2023-05-23T04:00:45;98659.41;;;17.24;68.74
40872;BME280;26591;43.264;26.940;2023-05-23T04:03:10;98663.38;;;17.41;67.71
40872;BME280;26591;43.264;26.940;2023-05-23T04:05:39;98660.50;;;17.61;67.08
40872;BME280;26591;43.264;26.940;2023-05-23T04:08:04;98667.38;;;17.75;67.22
40872;BME280;26591;43.264;26.940;2023-05-23T04:10:30;98665.28;;;17.96;66.33
40872;BME280;26591;43.264;26.940;2023-05-23T04:12:55;98679.28;;;17.98;67.22
40872;BME280;26591;43.264;26.940;2023-05-23T04:15:21;98674.44;;;18.25;66.48
40872;BME280;26591;43.264;26.940;2023-05-23T04:17:47;98676.59;;;18.17;65.96
40872;BME280;26591;43.264;26.940;2023-05-23T04:20:16;98652.75;;;18.15;65.77
40872;BME280;26591;43.264;26.940;2023-05-23T04:22:41;98659.88;;;18.03;66.62
40872;BME280;26591;43.264;26.940;2023-05-23T04:25:07;98655.91;;;17.87;67.13
40872;BME280;26591;43.264;26.940;2023-05-23T04:27:34;98654.28;;;17.85;67.54
40872;BME280;26591;43.264;26.940;2023-05-23T04:29:59;98659.34;;;18.31;67.08
40872;BME280;26591;43.264;26.940;2023-05-23T04:32:25;98661.41;;;18.29;66.49
40872;BME280;26591;43.264;26.940;2023-05-23T04:34:51;98672.38;;;18.58;66.04
40872;BME280;26591;43.264;26.940;2023-05-23T04:37:17;98665.91;;;18.78;65.20
40872;BME280;26591;43.264;26.940;2023-05-23T04:39:47;98669.63;;;18.46;65.68
40872;BME280;26591;43.264;26.940;2023-05-23T04:42:12;98670.94;;;18.86;65.07
40872;BME280;26591;43.264;26.940;2023-05-23T04:44:38;98668.34;;;18.67;64.27
40872;BME280;26591;43.264;26.940;2023-05-23T04:47:03;98663.44;;;18.64;64.92
40872;BME280;26591;43.264;26.940;2023-05-23T04:49:29;98677.28;;;18.61;65.21
40872;BME280;26591;43.264;26.940;2023-05-23T04:51:58;98668.78;;;18.64;64.66
40872;BME280;26591;43.264;26.940;2023-05-23T04:54:23;98673.72;;;18.79;64.05
40872;BME280;26591;43.264;26.940;2023-05-23T04:56:49;98675.16;;;18.94;63.84
40872;BME280;26591;43.264;26.940;2023-05-23T04:59:14;98676.25;;;19.04;63.79
40872;BME280;26591;43.264;26.940;2023-05-23T05:01:40;98675.13;;;19.36;63.42
40872;BME280;26591;43.264;26.940;2023-05-23T05:04:05;98682.72;;;19.63;62.07
40872;BME280;26591;43.264;26.940;2023-05-23T05:06:31;98675.25;;;19.77;62.10
40872;BME280;26591;43.264;26.940;2023-05-23T05:08:57;98679.53;;;20.02;62.44
40872;BME280;26591;43.264;26.940;2023-05-23T05:11:23;98677.84;;;20.65;59.73
40872;BME280;26591;43.264;26.940;2023-05-23T05:13:49;98674.88;;;20.96;57.49
40872;BME280;26591;43.264;26.940;2023-05-23T05:16:14;98674.44;;;21.55;57.65
40872;BME280;26591;43.264;26.940;2023-05-23T05:18:41;98675.56;;;22.16;55.35
40872;BME280;26591;43.264;26.940;2023-05-23T05:21:06;98679.97;;;22.71;52.78
40872;BME280;26591;43.264;26.940;2023-05-23T05:23:32;98687.72;;;22.95;52.56
40872;BME280;26591;43.264;26.940;2023-05-23T05:25:58;98691.66;;;22.55;52.41
40872;BME280;26591;43.264;26.940;2023-05-23T05:28:24;98688.16;;;22.32;53.26
40872;BME280;26591;43.264;26.940;2023-05-23T05:30:50;98687.97;;;22.39;53.86
40872;BME280;26591;43.264;26.940;2023-05-23T05:33:19;98689.22;;;22.53;52.90
40872;BME280;26591;43.264;26.940;2023-05-23T05:35:48;98691.19;;;21.74;53.80
40872;BME280;26591;43.264;26.940;2023-05-23T05:38:13;98686.22;;;21.49;55.52
40872;BME280;26591;43.264;26.940;2023-05-23T05:40:39;98682.09;;;21.80;55.39
40872;BME280;26591;43.264;26.940;2023-05-23T05:43:05;98681.91;;;21.48;54.93
40872;BME280;26591;43.264;26.940;2023-05-23T05:45:30;98687.28;;;21.48;55.64
40872;BME280;26591;43.264;26.940;2023-05-23T05:47:57;98693.72;;;21.47;55.23
40872;BME280;26591;43.264;26.940;2023-05-23T05:50:23;98694.22;;;21.44;55.67
40872;BME280;26591;43.264;26.940;2023-05-23T05:52:49;98696.31;;;21.76;54.94
40872;BME280;26591;43.264;26.940;2023-05-23T05:55:14;98687.78;;;21.62;55.25
40872;BME280;26591;43.264;26.940;2023-05-23T05:57:40;98687.66;;;21.91;55.26
40872;BME280;26591;43.264;26.940;2023-05-23T06:00:15;98693.22;;;22.29;54.07
40872;BME280;26591;43.264;26.940;2023-05-23T06:02:44;98698.56;;;23.28;52.23
40872;BME280;26591;43.264;26.940;2023-05-23T06:05:15;98696.31;;;23.52;51.26
40872;BME280;26591;43.264;26.940;2023-05-23T06:07:42;98691.78;;;23.63;51.33
40872;BME280;26591;43.264;26.940;2023-05-23T06:10:08;98692.69;;;24.32;49.23
40872;BME280;26591;43.264;26.940;2023-05-23T06:12:37;98686.22;;;24.38;48.43
40872;BME280;26591;43.264;26.940;2023-05-23T06:15:02;98689.88;;;24.80;48.82
40872;BME280;26591;43.264;26.940;2023-05-23T06:17:28;98686.34;;;25.32;46.30
40872;BME280;26591;43.264;26.940;2023-05-23T06:19:53;98689.47;;;26.11;45.36
40872;BME280;26591;43.264;26.940;2023-05-23T06:22:19;98691.16;;;25.92;45.04
40872;BME280;26591;43.264;26.940;2023-05-23T06:24:45;98698.69;;;26.65;45.23
40872;BME280;26591;43.264;26.940;2023-05-23T06:27:11;98698.94;;;27.14;43.49
40872;BME280;26591;43.264;26.940;2023-05-23T06:29:37;98704.88;;;26.21;44.08
40872;BME280;26591;43.264;26.940;2023-05-23T06:32:03;98697.78;;;26.86;43.89
40872;BME280;26591;43.264;26.940;2023-05-23T06:34:28;98691.84;;;26.73;43.06
40872;BME280;26591;43.264;26.940;2023-05-23T06:36:54;98693.16;;;27.21;42.67
40872;BME280;26591;43.264;26.940;2023-05-23T06:39:20;98700.59;;;27.10;42.69
40872;BME280;26591;43.264;26.940;2023-05-23T06:41:46;98692.69;;;26.74;42.87
40872;BME280;26591;43.264;26.940;2023-05-23T06:44:11;98682.97;;;25.97;43.63
40872;BME280;26591;43.264;26.940;2023-05-23T06:46:37;98688.19;;;25.88;45.16
40872;BME280;26591;43.264;26.940;2023-05-23T06:49:02;98676.53;;;25.82;44.24
40872;BME280;26591;43.264;26.940;2023-05-23T06:51:28;98676.81;;;25.75;45.26
40872;BME280;26591;43.264;26.940;2023-05-23T06:53:53;98672.47;;;25.80;45.61
40872;BME280;26591;43.264;26.940;2023-05-23T06:56:21;98677.84;;;25.90;44.75
40872;BME280;26591;43.264;26.940;2023-05-23T06:58:47;98672.81;;;25.52;44.88
40872;BME280;26591;43.264;26.940;2023-05-23T07:01:12;98674.97;;;25.29;45.17
40872;BME280;26591;43.264;26.940;2023-05-23T07:03:38;98678.78;;;25.08;46.30
40872;BME280;26591;43.264;26.940;2023-05-23T07:06:06;98676.34;;;25.06;46.00
40872;BME280;26591;43.264;26.940;2023-05-23T07:08:32;98669.41;;;24.26;46.25
40872;BME280;26591;43.264;26.940;2023-05-23T07:10:57;98668.94;;;23.81;48.07
40872;BME280;26591;43.264;26.940;2023-05-23T07:13:23;98675.22;;;23.49;48.54
40872;BME280;26591;43.264;26.940;2023-05-23T07:15:48;98663.81;;;23.85;47.86
40872;BME280;26591;43.264;26.940;2023-05-23T07:18:14;98671.41;;;23.93;48.14
40872;BME280;26591;43.264;26.940;2023-05-23T07:20:39;98660.19;;;24.17;48.70
40872;BME280;26591;43.264;26.940;2023-05-23T07:23:08;98664.38;;;23.44;48.02
40872;BME280;26591;43.264;26.940;2023-05-23T07:25:34;98660.81;;;23.00;49.82
40872;BME280;26591;43.264;26.940;2023-05-23T07:27:59;98666.28;;;23.11;49.35
40872;BME280;26591;43.264;26.940;2023-05-23T07:30:25;98663.81;;;23.42;49.55
40872;BME280;26591;43.264;26.940;2023-05-23T07:32:50;98666.69;;;23.25;49.85
40872;BME280;26591;43.264;26.940;2023-05-23T07:35:19;98668.84;;;23.23;50.19
40872;BME280;26591;43.264;26.940;2023-05-23T07:37:48;98665.25;;;22.84;50.04
40872;BME280;26591;43.264;26.940;2023-05-23T07:40:14;98673.56;;;23.10;49.72
40872;BME280;26591;43.264;26.940;2023-05-23T07:42:41;98672.66;;;23.32;49.01
40872;BME280;26591;43.264;26.940;2023-05-23T07:45:07;98674.56;;;22.99;50.55
40872;BME280;26591;43.264;26.940;2023-05-23T07:47:33;98672.53;;;22.57;50.88
40872;BME280;26591;43.264;26.940;2023-05-23T07:49:58;98670.84;;;22.50;51.28
40872;BME280;26591;43.264;26.940;2023-05-23T07:52:35;98667.09;;;22.29;51.83
40872;BME280;26591;43.264;26.940;2023-05-23T07:55:00;98666.97;;;22.19;52.41
40872;BME280;26591;43.264;26.940;2023-05-23T07:57:26;98666.22;;;22.23;52.09
40872;BME280;26591;43.264;26.940;2023-05-23T07:59:52;98667.22;;;22.17;52.62
40872;BME280;26591;43.264;26.940;2023-05-23T08:02:18;98664.66;;;22.28;52.74
40872;BME280;26591;43.264;26.940;2023-05-23T08:04:45;98667.72;;;21.92;52.83
40872;BME280;26591;43.264;26.940;2023-05-23T08:07:11;98674.56;;;21.60;53.57
40872;BME280;26591;43.264;26.940;2023-05-23T08:09:40;98674.19;;;21.91;53.75
40872;BME280;26591;43.264;26.940;2023-05-23T08:12:06;98659.88;;;22.35;53.26
40872;BME280;26591;43.264;26.940;2023-05-23T08:14:32;98670.13;;;22.88;52.48
40872;BME280;26591;43.264;26.940;2023-05-23T08:16:57;98673.72;;;23.26;50.62
40872;BME280;26591;43.264;26.940;2023-05-23T08:19:23;98666.19;;;23.00;50.90
40872;BME280;26591;43.264;26.940;2023-05-23T08:21:48;98661.66;;;23.06;50.10
40872;BME280;26591;43.264;26.940;2023-05-23T08:24:14;98666.03;;;23.12;50.15
40872;BME280;26591;43.264;26.940;2023-05-23T08:26:39;98653.91;;;22.55;51.22
40872;BME280;26591;43.264;26.940;2023-05-23T08:29:06;98658.50;;;22.54;51.14
40872;BME280;26591;43.264;26.940;2023-05-23T08:31:33;98649.00;;;22.02;51.43
40872;BME280;26591;43.264;26.940;2023-05-23T08:34:00;98648.94;;;21.97;51.82
40872;BME280;26591;43.264;26.940;2023-05-23T08:36:26;98652.94;;;22.17;51.76
40872;BME280;26591;43.264;26.940;2023-05-23T08:38:51;98646.97;;;22.15;52.04
40872;BME280;26591;43.264;26.940;2023-05-23T08:41:23;98644.91;;;22.22;52.38
40872;BME280;26591;43.264;26.940;2023-05-23T08:43:49;98646.53;;;22.23;52.29
40872;BME280;26591;43.264;26.940;2023-05-23T08:46:15;98651.63;;;21.97;52.38
40872;BME280;26591;43.264;26.940;2023-05-23T08:48:54;98650.97;;;22.57;52.10
40872;BME280;26591;43.264;26.940;2023-05-23T08:51:21;98651.72;;;22.52;50.78
40872;BME280;26591;43.264;26.940;2023-05-23T08:53:48;98649.94;;;22.90;50.89
40872;BME280;26591;43.264;26.940;2023-05-23T08:56:15;98659.03;;;22.84;50.15
40872;BME280;26591;43.264;26.940;2023-05-23T08:58:41;98656.69;;;23.20;49.82
40872;BME280;26591;43.264;26.940;2023-05-23T09:01:09;98652.50;;;23.45;48.09
40872;BME280;26591;43.264;26.940;2023-05-23T09:03:36;98653.53;;;23.34;49.53
40872;BME280;26591;43.264;26.940;2023-05-23T09:06:05;98651.91;;;23.33;49.72
40872;BME280;26591;43.264;26.940;2023-05-23T09:08:32;98654.78;;;23.21;49.98
40872;BME280;26591;43.264;26.940;2023-05-23T09:10:57;98653.47;;;23.28;49.68
40872;BME280;26591;43.264;26.940;2023-05-23T09:13:23;98646.41;;;23.60;47.83
40872;BME280;26591;43.264;26.940;2023-05-23T09:18:40;98637.59;;;23.80;47.34
40872;BME280;26591;43.264;26.940;2023-05-23T09:21:11;98645.69;;;23.85;47.21
40872;BME280;26591;43.264;26.940;2023-05-23T09:23:38;98646.00;;;23.89;47.11
40872;BME280;26591;43.264;26.940;2023-05-23T09:26:06;98644.75;;;24.07;46.69
40872;BME280;26591;43.264;26.940;2023-05-23T09:28:32;98638.84;;;23.62;46.52
40872;BME280;26591;43.264;26.940;2023-05-23T09:30:59;98642.69;;;23.71;47.45
40872;BME280;26591;43.264;26.940;2023-05-23T09:33:46;98640.06;;;23.92;46.88
40872;BME280;26591;43.264;26.940;2023-05-23T09:36:12;98643.50;;;23.77;47.74
40872;BME280;26591;43.264;26.940;2023-05-23T09:38:39;98641.22;;;23.53;47.58
40872;BME280;26591;43.264;26.940;2023-05-23T09:41:06;98644.47;;;23.17;48.20
40872;BME280;26591;43.264;26.940;2023-05-23T09:43:32;98646.34;;;23.17;48.38
40872;BME280;26591;43.264;26.940;2023-05-23T09:46:09;98644.31;;;23.29;47.79
40872;BME280;26591;43.264;26.940;2023-05-23T09:48:36;98639.69;;;23.25;48.85
40872;BME280;26591;43.264;26.940;2023-05-23T09:51:08;98639.75;;;23.30;48.99
40872;BME280;26591;43.264;26.940;2023-05-23T09:53:34;98640.03;;;23.39;49.01
40872;BME280;26591;43.264;26.940;2023-05-23T09:56:02;98641.69;;;23.07;49.33
40872;BME280;26591;43.264;26.940;2023-05-23T09:58:28;98644.94;;;23.09;50.56
40872;BME280;26591;43.264;26.940;2023-05-23T10:00:59;98634.19;;;22.82;49.11
40872;BME280;26591;43.264;26.940;2023-05-23T10:03:48;98641.84;;;22.90;50.14
40872;BME280;26591;43.264;26.940;2023-05-23T10:06:48;98637.84;;;22.98;50.27
40872;BME280;26591;43.264;26.940;2023-05-23T10:09:18;98637.34;;;23.01;50.24
40872;BME280;26591;43.264;26.940;2023-05-23T10:12:38;98638.13;;;23.01;50.09
40872;BME280;26591;43.264;26.940;2023-05-23T10:14:40;98635.53;;;23.50;50.32
40872;BME280;26591;43.264;26.940;2023-05-23T10:17:16;98632.66;;;23.24;48.45
40872;BME280;26591;43.264;26.940;2023-05-23T10:19:47;98627.31;;;23.34;49.27
40872;BME280;26591;43.264;26.940;2023-05-23T10:22:17;98629.22;;;23.34;48.35
40872;BME280;26591;43.264;26.940;2023-05-23T10:24:47;98630.16;;;23.55;48.41
40872;BME280;26591;43.264;26.940;2023-05-23T10:27:13;98631.88;;;23.28;48.02
40872;BME280;26591;43.264;26.940;2023-05-23T10:29:39;98640.53;;;23.30;49.29
40872;BME280;26591;43.264;26.940;2023-05-23T10:32:05;98637.41;;;23.11;49.72
40872;BME280;26591;43.264;26.940;2023-05-23T10:37:05;98645.22;;;23.08;53.08
40872;BME280;26591;43.264;26.940;2023-05-23T10:42:33;98652.25;;;23.14;54.35
40872;BME280;26591;43.264;26.940;2023-05-23T10:45:21;98648.78;;;23.19;56.82
40872;BME280;26591;43.264;26.940;2023-05-23T10:47:48;98651.72;;;23.12;57.70
40872;BME280;26591;43.264;26.940;2023-05-23T10:50:16;98657.31;;;23.00;56.93
40872;BME280;26591;43.264;26.940;2023-05-23T10:52:53;98652.69;;;22.68;56.87
40872;BME280;26591;43.264;26.940;2023-05-23T10:55:19;98660.00;;;22.45;58.64
40872;BME280;26591;43.264;26.940;2023-05-23T10:57:44;98651.69;;;22.24;60.83
40872;BME280;26591;43.264;26.940;2023-05-23T11:00:14;98649.41;;;22.16;62.48
40872;BME280;26591;43.264;26.940;2023-05-23T11:02:53;98645.59;;;22.34;60.66
40872;BME280;26591;43.264;26.940;2023-05-23T11:05:23;98647.19;;;22.58;61.94
40872;BME280;26591;43.264;26.940;2023-05-23T11:08:14;98643.84;;;22.73;62.71
40872;BME280;26591;43.264;26.940;2023-05-23T11:16:41;98644.91;;;23.37;61.16
40872;BME280;26591;43.264;26.940;2023-05-23T11:19:21;98635.75;;;23.43;60.26
40872;BME280;26591;43.264;26.940;2023-05-23T11:21:54;98630.13;;;23.50;59.48
40872;BME280;26591;43.264;26.940;2023-05-23T11:24:22;98629.41;;;23.65;58.93
40872;BME280;26591;43.264;26.940;2023-05-23T11:27:10;98627.69;;;23.96;56.28
40872;BME280;26591;43.264;26.940;2023-05-23T11:29:36;98638.16;;;23.87;56.95
40872;BME280;26591;43.264;26.940;2023-05-23T11:32:09;98641.00;;;24.18;56.15
40872;BME280;26591;43.264;26.940;2023-05-23T11:34:37;98638.06;;;24.35;57.89
40872;BME280;26591;43.264;26.940;2023-05-23T11:37:03;98662.09;;;24.21;57.22
40872;BME280;26591;43.264;26.940;2023-05-23T11:39:34;98653.97;;;22.60;58.65
40872;BME280;26591;43.264;26.940;2023-05-23T11:42:00;98649.59;;;21.65;58.55
40872;BME280;26591;43.264;26.940;2023-05-23T11:44:27;98648.88;;;21.01;59.61
40872;BME280;26591;43.264;26.940;2023-05-23T11:47:00;98646.25;;;20.03;61.96
40872;BME280;26591;43.264;26.940;2023-05-23T11:49:30;98664.16;;;19.49;62.80
40872;BME280;26591;43.264;26.940;2023-05-23T11:51:56;98668.91;;;19.12;64.36
40872;BME280;26591;43.264;26.940;2023-05-23T11:54:23;98660.94;;;18.93;65.56
40872;BME280;26591;43.264;26.940;2023-05-23T11:56:50;98663.78;;;19.10;65.86
40872;BME280;26591;43.264;26.940;2023-05-23T11:59:15;98662.06;;;19.28;66.61
40872;BME280;26591;43.264;26.940;2023-05-23T12:01:42;98660.44;;;19.62;66.92
40872;BME280;26591;43.264;26.940;2023-05-23T12:04:09;98669.31;;;19.87;67.99
40872;BME280;26591;43.264;26.940;2023-05-23T12:06:39;98659.56;;;20.09;67.67
40872;BME280;26591;43.264;26.940;2023-05-23T12:09:06;98662.22;;;20.21;67.51
40872;BME280;26591;43.264;26.940;2023-05-23T12:11:33;98667.13;;;20.53;68.29
40872;BME280;26591;43.264;26.940;2023-05-23T12:13:59;98667.59;;;20.50;68.07
40872;BME280;26591;43.264;26.940;2023-05-23T12:16:33;98661.84;;;20.58;68.53
40872;BME280;26591;43.264;26.940;2023-05-23T12:19:00;98663.28;;;20.78;68.84
40872;BME280;26591;43.264;26.940;2023-05-23T12:21:38;98668.84;;;20.88;68.91
40872;BME280;26591;43.264;26.940;2023-05-23T12:24:18;98653.38;;;21.13;67.80
40872;BME280;26591;43.264;26.940;2023-05-23T12:26:48;98660.22;;;21.38;67.81
40872;BME280;26591;43.264;26.940;2023-05-23T12:29:14;98659.47;;;21.25;67.32
40872;BME280;26591;43.264;26.940;2023-05-23T12:31:40;98658.81;;;21.35;67.48
40872;BME280;26591;43.264;26.940;2023-05-23T12:34:06;98654.41;;;21.46;67.19
40872;BME280;26591;43.264;26.940;2023-05-23T12:36:33;98647.25;;;21.34;65.42
40872;BME280;26591;43.264;26.940;2023-05-23T12:39:02;98645.34;;;21.35;66.00
40872;BME280;26591;43.264;26.940;2023-05-23T12:41:28;98647.66;;;21.43;65.95
40872;BME280;26591;43.264;26.940;2023-05-23T12:43:55;98649.56;;;21.82;65.68
40872;BME280;26591;43.264;26.940;2023-05-23T12:46:23;98650.53;;;22.20;63.54
40872;BME280;26591;43.264;26.940;2023-05-23T12:48:53;98652.75;;;22.01;64.49
40872;BME280;26591;43.264;26.940;2023-05-23T12:51:19;98643.50;;;21.36;64.64
40872;BME280;26591;43.264;26.940;2023-05-23T12:53:45;98637.28;;;21.35;65.60
40872;BME280;26591;43.264;26.940;2023-05-23T12:56:11;98630.22;;;21.29;65.56
40872;BME280;26591;43.264;26.940;2023-05-23T12:58:37;98643.00;;;21.39;65.20
40872;BME280;26591;43.264;26.940;2023-05-23T13:01:02;98648.03;;;21.69;63.09
40872;BME280;26591;43.264;26.940;2023-05-23T13:03:28;98642.00;;;21.45;63.99
40872;BME280;26591;43.264;26.940;2023-05-23T13:05:58;98638.13;;;21.18;62.78
40872;BME280;26591;43.264;26.940;2023-05-23T13:08:24;98642.34;;;20.97;61.60
40872;BME280;26591;43.264;26.940;2023-05-23T13:10:49;98641.97;;;21.06;62.65
40872;BME280;26591;43.264;26.940;2023-05-23T13:13:15;98639.91;;;21.30;62.54